Virgie Cenac — WDC2765 — position and weather

sailwx.info

Track history (hours):
 
Tides and Currents Weather Stations Pressure Air Temp Water Temp Dewpoint Dewpoint Depression Visibility Wind Speed Wind Dir Waves Ship Positions

Virgie Cenac

Owner: Cenac Marine Transportation, Inc., Houma, LA. More information available from US FCC via Universal Licensing System and Coast Guard Vessel Documentation Center.

Last reported at 2017-Mar-16 12:22 UTC. Time now 2017-Apr-24 11:32 UTC.
Position N 30°26' W 086°16'.
Warning: this ship's position is 38 days out of date.

Length 18 m; draft 3 m.

Type: Towing. MMSI: 366997430.

Date/timePositionNaut miles runAvg speedWind from/ knotsBaromVisibWave heightAir tempDewpointWater temp
2017-Mar-16 12:22N 30°26' W 086°16'3 3.3
2017-Mar-16 11:33N 30°26' W 086°19'3 3.4
2017-Mar-16 10:33N 30°26' W 086°23'3 3.4
2017-Mar-16 09:33N 30°26' W 086°27'3 3.2
2017-Mar-16 08:33N 30°25' W 086°30'13 2.4
2017-Mar-16 03:24N 30°24' W 086°45'3 3.1
2017-Mar-16 02:33N 30°24' W 086°48'  
2017-Mar-09 09:13N 29°34' W 090°31'3 4.5
2017-Mar-09 08:33N 29°34' W 090°35'4 4.3
2017-Mar-09 07:33N 29°36' W 090°39'3 3.0
2017-Mar-09 06:33N 29°36' W 090°43'3 3.2
2017-Mar-09 05:33N 29°33' W 090°45'3 2.4
2017-Mar-09 04:30N 29°32' W 090°48'66 3.7
2017-Mar-08 10:33N 29°50' W 092°01'4 4.3
2017-Mar-08 09:33N 29°48' W 092°05'4 4.2
2017-Mar-08 08:33N 29°47' W 092°10'2 2.4
2017-Mar-08 07:33N 29°47' W 092°13'2 1.8
2017-Mar-08 06:33N 29°48' W 092°14'0 0.2
2017-Mar-08 05:33N 29°48' W 092°15'0 0.0
2017-Mar-08 04:33N 29°48' W 092°15'1 1.0
2017-Mar-08 03:33N 29°48' W 092°16'3 2.8
2017-Mar-08 02:33N 29°50' W 092°18'41 4.0
2017-Mar-07 16:24N 29°56' W 093°05'4 4.3
2017-Mar-07 15:33N 29°56' W 093°09'4 4.0
2017-Mar-07 14:33N 29°59' W 093°12'4 3.9
2017-Mar-07 13:33N 30°02' W 093°15'4 3.8
2017-Mar-07 12:33N 30°05' W 093°17'1 1.0
2017-Mar-07 11:33N 30°06' W 093°18'0 0.0
2017-Mar-07 10:33N 30°06' W 093°18'0 0.0
2017-Mar-07 09:33N 30°06' W 093°18'0 0.0
2017-Mar-07 08:33N 30°06' W 093°18'0 0.0
2017-Mar-07 07:33N 30°06' W 093°18'0 0.0
2017-Mar-07 06:33N 30°06' W 093°18'0 0.0
2017-Mar-07 05:33N 30°06' W 093°18'0 0.0
2017-Mar-07 04:33N 30°06' W 093°18'0 0.0
2017-Mar-07 03:33N 30°06' W 093°18'0 0.0
2017-Mar-07 02:33N 30°06' W 093°18'0 0.0
2017-Mar-07 01:33N 30°06' W 093°18'0 0.0
2017-Mar-07 00:33N 30°06' W 093°18'0 0.0
2017-Mar-06 23:33N 30°06' W 093°18'0 0.0
2017-Mar-06 22:33N 30°06' W 093°18'0 0.0
2017-Mar-06 21:33N 30°06' W 093°18'0 0.0
2017-Mar-06 20:33N 30°06' W 093°18'2 1.8
2017-Mar-06 19:33N 30°05' W 093°20'4 3.6
2017-Mar-06 18:33N 30°04' W 093°24'5 4.1
2017-Mar-06 17:28N 30°04' W 093°29'  
Track history (hours):
 
Tides and Currents Weather Stations Pressure Air Temp Water Temp Dewpoint Dewpoint Depression Visibility Wind Speed Wind Dir Waves Ship Positions

Virgie Cenac

Owner: Cenac Marine Transportation, Inc., Houma, LA. More information available from US FCC via Universal Licensing System and Coast Guard Vessel Documentation Center.

Last reported at 2017-Mar-16 12:22 UTC. Time now 2017-Apr-24 11:32 UTC.
Position N 30°26' W 086°16'.
Warning: this ship's position is 38 days out of date.

Length 18 m; draft 3 m.

Type: Towing. MMSI: 366997430.

Date/timePositionNaut miles runAvg speedWind from/ knotsBaromVisibWave heightAir tempDewpointWater temp
2017-Mar-16 12:22N 30°26' W 086°16'3 3.3
2017-Mar-16 11:33N 30°26' W 086°19'3 3.4
2017-Mar-16 10:33N 30°26' W 086°23'3 3.4
2017-Mar-16 09:33N 30°26' W 086°27'3 3.2
2017-Mar-16 08:33N 30°25' W 086°30'13 2.4
2017-Mar-16 03:24N 30°24' W 086°45'3 3.1
2017-Mar-16 02:33N 30°24' W 086°48'  
2017-Mar-09 09:13N 29°34' W 090°31'3 4.5
2017-Mar-09 08:33N 29°34' W 090°35'4 4.3
2017-Mar-09 07:33N 29°36' W 090°39'3 3.0
2017-Mar-09 06:33N 29°36' W 090°43'3 3.2
2017-Mar-09 05:33N 29°33' W 090°45'3 2.4
2017-Mar-09 04:30N 29°32' W 090°48'66 3.7
2017-Mar-08 10:33N 29°50' W 092°01'4 4.3
2017-Mar-08 09:33N 29°48' W 092°05'4 4.2
2017-Mar-08 08:33N 29°47' W 092°10'2 2.4
2017-Mar-08 07:33N 29°47' W 092°13'2 1.8
2017-Mar-08 06:33N 29°48' W 092°14'0 0.2
2017-Mar-08 05:33N 29°48' W 092°15'0 0.0
2017-Mar-08 04:33N 29°48' W 092°15'1 1.0
2017-Mar-08 03:33N 29°48' W 092°16'3 2.8
2017-Mar-08 02:33N 29°50' W 092°18'41 4.0
2017-Mar-07 16:24N 29°56' W 093°05'4 4.3
2017-Mar-07 15:33N 29°56' W 093°09'4 4.0
2017-Mar-07 14:33N 29°59' W 093°12'4 3.9
2017-Mar-07 13:33N 30°02' W 093°15'4 3.8
2017-Mar-07 12:33N 30°05' W 093°17'1 1.0
2017-Mar-07 11:33N 30°06' W 093°18'0 0.0
2017-Mar-07 10:33N 30°06' W 093°18'0 0.0
2017-Mar-07 09:33N 30°06' W 093°18'0 0.0
2017-Mar-07 08:33N 30°06' W 093°18'0 0.0
2017-Mar-07 07:33N 30°06' W 093°18'0 0.0
2017-Mar-07 06:33N 30°06' W 093°18'0 0.0
2017-Mar-07 05:33N 30°06' W 093°18'0 0.0
2017-Mar-07 04:33N 30°06' W 093°18'0 0.0
2017-Mar-07 03:33N 30°06' W 093°18'0 0.0
2017-Mar-07 02:33N 30°06' W 093°18'0 0.0
2017-Mar-07 01:33N 30°06' W 093°18'0 0.0
2017-Mar-07 00:33N 30°06' W 093°18'0 0.0
2017-Mar-06 23:33N 30°06' W 093°18'0 0.0
2017-Mar-06 22:33N 30°06' W 093°18'0 0.0
2017-Mar-06 21:33N 30°06' W 093°18'0 0.0
2017-Mar-06 20:33N 30°06' W 093°18'2 1.8
2017-Mar-06 19:33N 30°05' W 093°20'4 3.6
2017-Mar-06 18:33N 30°04' W 093°24'5 4.1
2017-Mar-06 17:28N 30°04' W 093°29'  

Dump ship's entire track history